Record high temperature 39.4°C Record low temperature -14.6°C Record high gust 68.5 km/h Record high average 47.2 km/h Record daily rain 55.3 mm Record low windchill -17.5°C Record high barometer 1045.0 hPa Record low barometer 970.0 hPa
Daily high pressure 996.0 hPa Daily low pressure 992.0 hPa Daily low windchill -4.8°C Daily high heat index 0.0°C Daily high gust speed 14.4 kmh E Daily high average speed 10.0 kmh SSE

This page is updated from recent data collected by a WMR200 weather station Use the Reload or Refresh facility on your browser to retrieve the latest data.

Status report of weather station: Bienvenue sur la Station Météo de Godarville



Weather report/warning/Metars

Alexandroupoli Airport , Greece (LGAL) 40-51N 025-55E 3M
Jan 23, 2019 - 03:20 AM EST / 2019.01.23 0820 UTC
Wind: from the SSW (200 degrees) at 5 MPH (4 KT):0
Visibility: greater than 7 mile(s):0
Sky conditions: partly cloudy
Weather: Towering cumulus clouds observed
Temperature: 55 F (13 C)
Dew Point: 53 F (12 C)
Relative Humidity: 93%
Pressure (altimeter): 29.68 in. Hg (1005 hPa)
ob: LGAL 230820Z 20004KT 9999 FEW010 FEW018TCU SCT020 13/12 Q1005
cycle: 8

Charleroi / Gosselies, Belgium (EBCI) 50-28N 004-27E 192M
Jan 23, 2019 - 03:20 AM EST / 2019.01.23 0820 UTC
Wind: from the E (090 degrees) at 9 MPH (8 KT):0
Visibility: 4 mile(s):0
Sky conditions: mostly cloudy
Temperature: 30 F (-1 C)
Windchill: 21 F (-6 C):1
Dew Point: 26 F (-3 C)
Relative Humidity: 86%
Pressure (altimeter): 29.38 in. Hg (0995 hPa)
ob: EBCI 230820Z 09008KT 7000 FEW010 BKN024 M01/M03 Q0995 R24/450095 TEMPO 3500 -SN BR BKN003
cycle: 8

Bruxelles National, Belgium (EBBR) 50-54N 004-32E 58M
Jan 23, 2019 - 03:20 AM EST / 2019.01.23 0820 UTC
Wind: from the E (100 degrees) at 5 MPH (4 KT):0
Visibility: 5 mile(s):0
Sky conditions: mostly cloudy
Temperature: 28 F (-2 C)
Windchill: 23 F (-5 C):1
Dew Point: 26 F (-3 C)
Relative Humidity: 92%
Pressure (altimeter): 29.41 in. Hg (0996 hPa)
ob: EBBR 230820Z 10004KT 9000 BKN026 M02/M03 Q0996 NOSIG
cycle: 8

Koksijde, Belgium (EBFN) 51-05N 002-39E 9M
Jan 23, 2019 - 03:25 AM EST / 2019.01.23 0825 UTC
Wind: from the NE (050 degrees) at 8 MPH (7 KT):0
Visibility: 1 mile(s):0
Sky conditions: mostly cloudy
Weather: light snow
Temperature: 30 F (-1 C)
Windchill: 23 F (-5 C):1
Dew Point: 30 F (-1 C)
Relative Humidity: 100%
Pressure (altimeter): 29.44 in. Hg (0997 hPa)
ob: EBFN 230825Z 05007KT 2200 -SN FEW004 BKN018 BKN070 M01/M01 Q0997 BLACKYLO YLO
cycle: 8

Poznan, Poland (EPPO) 52-25N 016-50E 92M
Jan 23, 2019 - 03:30 AM EST / 2019.01.23 0830 UTC
Wind: from the ESE (120 degrees) at 14 MPH (12 KT):0
Visibility: greater than 7 mile(s):0
Sky conditions: overcast
Temperature: 21 F (-6 C)
Windchill: 8 F (-13 C):1
Dew Point: 15 F (-9 C)
Relative Humidity: 79%
Pressure (altimeter): 29.74 in. Hg (1007 hPa)
ob: EPPO 230830Z 12012KT 9999 OVC014 M06/M09 Q1007 
cycle: 8



Coucher du Soleil:
17:17:59

Lever de Lune:
19:11:08 22/01/19

Coucher de Lune:
09:25:56 22/01/19

Premier Quartier 14 janvier 2019
Pleine Lune 21 janvier 2019
Dernier Quartier 27 janvier 2019
Nouvelle Lune 4 février 2019
Âge de lune : 16 jours,18 heures,58 minutes,95%
Les heures du jour possible étaient aujourd’hui 08:46